Portada
METAR-TAF:

METAR-TAF

Aeropuertos :

El Hierro, España

Aeropuerto de El Hierro

latitud: 27-49N, longitud: 017-53W, altitud: 32 m

Observación

El informe se hizo hace 23 minutos, a las 18:00 UTC
Viento 13 kt del norte-noreste
Temperatura 23°C
Humedad 65%
Presión 1020 hPa
Visibilidad 10 km o más
Escasas nubes a una altura de 3000 ft

METAR: GCHI 271800Z 03013KT 9999 FEW030 23/16 Q1020

Hora: 18:23 (18:23 UTC)

Pronóstico

El informe se hizo hace 4 horas y 23 minutos, a las 14:00 UTC
Pronóstico válido del 27 a las 15 UTC al 28 a las 15 UTC
Viento 9 kt del noreste
Visibilidad 10 km o más
Nubes dispersas a una altura de 2500 ft

TAF: GCHI 271400Z 2715/2815 05009KT 9999 SCT025 TX23/2814Z TN22/2807Z

Observaciones y pronósticos meteorológicos de más de 4000 aeropuertos (mensajes METAR y TAF).

Los puntos amarillos y rojos representan las estaciones disponibles.

Ponga el ratón en el punto deseado para ver el nombre de la estación.

Haga clic para ver las observaciones y los pronósticos meteorológicos.

Para cambiar el mapa : haga clic en los botones verdes con una cruz de color negro para hacer un zoom, en el botón verde con un guión para alejar o en las flechas verdes para mapas adyacentes.


METAR-TAF: